createdAt,value
2023-03-05T00:01:25.423Z,14.85
2023-03-05T00:03:53.567Z,15.82
2023-03-05T00:06:21.688Z,17.17
2023-03-05T00:08:51.113Z,16.20
2023-03-05T00:11:20.598Z,15.65
2023-03-05T00:13:47.108Z,17.38
2023-03-05T00:16:16.028Z,16.95
2023-03-05T00:18:42.830Z,18.45
2023-03-05T00:21:40.177Z,19.52
2023-03-05T00:24:13.810Z,19.33
2023-03-05T00:26:47.414Z,18.08
2023-03-05T00:29:18.481Z,25.15
2023-03-05T00:31:45.815Z,19.95
2023-03-05T00:34:15.529Z,19.77
2023-03-05T00:36:44.230Z,23.00
2023-03-05T00:39:11.777Z,23.77
2023-03-05T00:41:40.233Z,21.77
2023-03-05T00:44:07.182Z,20.88
2023-03-05T00:46:33.902Z,21.20
2023-03-05T00:49:09.501Z,20.85
2023-03-05T00:51:37.988Z,19.50
2023-03-05T00:54:06.072Z,19.63
2023-03-05T00:56:34.741Z,19.30
2023-03-05T00:59:03.578Z,18.63
2023-03-05T01:01:30.218Z,18.23
2023-03-05T01:03:59.275Z,17.50
2023-03-05T01:06:25.828Z,17.27
2023-03-05T01:08:52.402Z,21.65
2023-03-05T01:11:21.098Z,21.75
2023-03-05T01:13:47.720Z,18.17
2023-03-05T01:16:14.721Z,19.48
2023-03-05T01:18:43.455Z,17.17
2023-03-05T01:21:13.887Z,17.50
2023-03-05T01:23:40.414Z,17.70
2023-03-05T01:26:08.726Z,15.55
2023-03-05T01:28:35.717Z,14.55
2023-03-05T01:31:02.434Z,14.60
2023-03-05T01:33:30.646Z,14.73
2023-03-05T01:35:57.301Z,13.57
2023-03-05T01:38:23.848Z,13.68
2023-03-05T01:40:52.115Z,15.15
2023-03-05T01:43:28.724Z,13.38
2023-03-05T01:46:32.526Z,16.10
2023-03-05T01:49:24.660Z,14.88
2023-03-05T01:51:58.012Z,18.52
2023-03-05T01:54:38.883Z,16.70
2023-03-05T01:57:12.741Z,15.38
2023-03-05T01:59:42.828Z,15.75
2023-03-05T02:02:12.970Z,14.73
2023-03-05T02:05:05.434Z,15.43
2023-03-05T02:07:33.732Z,16.27
2023-03-05T02:10:00.349Z,15.73
2023-03-05T02:12:31.338Z,17.02
2023-03-05T02:14:59.497Z,16.77
2023-03-05T02:17:29.343Z,16.05
2023-03-05T02:20:07.543Z,14.57
2023-03-05T02:22:34.173Z,16.27
2023-03-05T02:25:00.786Z,17.08
2023-03-05T02:27:35.342Z,13.68
2023-03-05T02:30:02.729Z,13.98
2023-03-05T02:32:29.582Z,13.85
2023-03-05T02:34:58.291Z,13.23
2023-03-05T02:37:24.776Z,13.27
2023-03-05T02:39:51.326Z,13.00
2023-03-05T02:42:19.564Z,13.35
2023-03-05T02:44:48.322Z,11.93
2023-03-05T02:47:14.866Z,11.52
2023-03-05T02:49:43.552Z,11.13
2023-03-05T02:52:10.070Z,11.30
2023-03-05T02:54:36.750Z,11.05
2023-03-05T02:57:03.482Z,11.32
2023-03-05T02:59:30.145Z,11.82
2023-03-05T03:01:56.744Z,10.93
2023-03-05T03:04:25.275Z,11.35
2023-03-05T03:06:51.902Z,11.32
2023-03-05T03:09:18.405Z,11.07
2023-03-05T03:11:46.606Z,10.25
2023-03-05T03:14:13.112Z,12.27
2023-03-05T03:16:39.824Z,12.85
2023-03-05T03:19:08.170Z,12.68
2023-03-05T03:21:34.693Z,12.32
2023-03-05T03:24:01.197Z,10.43
2023-03-05T03:26:32.524Z,11.13
2023-03-05T03:28:59.054Z,10.80
2023-03-05T03:31:25.672Z,10.88
2023-03-05T03:33:54.497Z,11.50
2023-03-05T03:36:21.193Z,11.05
2023-03-05T03:38:47.674Z,10.55
2023-03-05T03:41:14.451Z,10.25
2023-03-05T03:43:41.132Z,11.90
2023-03-05T03:46:07.916Z,10.52
2023-03-05T03:48:40.239Z,10.55
2023-03-05T03:51:07.998Z,10.57
2023-03-05T03:53:34.532Z,10.35
2023-03-05T03:56:02.796Z,10.52
2023-03-05T03:58:29.542Z,11.15
2023-03-05T04:00:56.046Z,11.13
2023-03-05T04:03:24.392Z,12.18
2023-03-05T04:05:50.889Z,12.60
2023-03-05T04:08:17.602Z,12.13
2023-03-05T04:10:46.093Z,11.40
2023-03-05T04:13:12.630Z,12.02
2023-03-05T04:15:39.180Z,12.75
2023-03-05T04:18:07.515Z,12.70
2023-03-05T04:20:35.980Z,12.95
2023-03-05T04:23:02.719Z,12.05
2023-03-05T04:25:29.688Z,11.98
2023-03-05T04:27:56.242Z,14.25
2023-03-05T04:30:24.662Z,11.98
2023-03-05T04:32:53.399Z,12.38
2023-03-05T04:35:20.291Z,12.82
2023-03-05T04:37:47.353Z,13.80
2023-03-05T04:40:16.554Z,13.20
2023-03-05T04:42:43.115Z,13.07
2023-03-05T04:45:10.727Z,13.20
2023-03-05T04:47:39.510Z,13.73
2023-03-05T04:50:07.399Z,12.93
2023-03-05T04:52:34.092Z,11.98
2023-03-05T04:55:00.773Z,12.65
2023-03-05T04:57:27.288Z,12.40
2023-03-05T04:59:53.808Z,12.70
2023-03-05T05:02:26.890Z,11.50
2023-03-05T05:04:53.856Z,11.90
2023-03-05T05:07:21.237Z,12.80
2023-03-05T05:09:49.481Z,11.98
2023-03-05T05:12:16.081Z,12.15
2023-03-05T05:14:44.862Z,13.35
2023-03-05T05:17:11.482Z,12.05
2023-03-05T05:19:38.195Z,12.32
2023-03-05T05:22:04.758Z,12.60
2023-03-05T05:24:31.429Z,12.18
2023-03-05T05:26:59.830Z,10.95
2023-03-05T05:29:26.378Z,12.23
2023-03-05T05:31:54.336Z,12.00
2023-03-05T05:34:25.096Z,11.70
2023-03-05T05:36:52.205Z,12.95
2023-03-05T05:39:20.628Z,12.27
2023-03-05T05:41:50.702Z,12.77
2023-03-05T05:44:17.472Z,14.57
2023-03-05T05:46:45.835Z,13.77
2023-03-05T05:49:12.494Z,13.65
2023-03-05T05:51:39.289Z,13.63
2023-03-05T05:54:06.244Z,14.75
2023-03-05T05:56:33.948Z,15.23
2023-03-05T05:59:00.597Z,13.27
2023-03-05T06:01:32.477Z,14.35
2023-03-05T06:04:00.149Z,13.32
2023-03-05T06:06:28.080Z,14.38
2023-03-05T06:08:55.750Z,13.73
2023-03-05T06:11:23.044Z,15.13
2023-03-05T06:13:49.848Z,13.70
2023-03-05T06:16:19.376Z,17.52
2023-03-05T06:18:48.183Z,15.07
2023-03-05T06:21:16.566Z,16.20
2023-03-05T06:23:45.596Z,18.73
2023-03-05T06:26:13.989Z,17.98
2023-03-05T06:28:40.756Z,18.88
2023-03-05T06:31:11.839Z,16.98
2023-03-05T06:33:39.702Z,17.77
2023-03-05T06:36:08.703Z,19.48
2023-03-05T06:38:36.127Z,17.48
2023-03-05T06:41:09.301Z,16.45
2023-03-05T06:43:38.512Z,17.58
2023-03-05T06:46:19.924Z,17.40
2023-03-05T06:48:56.462Z,16.83
2023-03-05T06:51:29.281Z,15.93
2023-03-05T06:54:06.772Z,16.48
2023-03-05T06:56:36.279Z,15.07
2023-03-05T06:59:03.187Z,15.18
2023-03-05T07:01:37.474Z,15.05
2023-03-05T07:04:08.377Z,15.23
2023-03-05T07:06:38.213Z,14.35
2023-03-05T07:09:06.966Z,15.60
2023-03-05T07:11:34.176Z,16.15
2023-03-05T07:14:00.900Z,16.08
2023-03-05T07:16:32.492Z,15.27
2023-03-05T07:19:02.824Z,15.88
2023-03-05T07:21:32.056Z,15.50
2023-03-05T07:24:02.456Z,16.98
2023-03-05T07:26:29.134Z,15.48
2023-03-05T07:28:57.604Z,15.07
2023-03-05T07:31:31.300Z,14.77
2023-03-05T07:34:02.925Z,14.18
2023-03-05T07:36:30.836Z,14.32
2023-03-05T07:38:57.611Z,13.73
2023-03-05T07:41:24.204Z,13.25
2023-03-05T07:43:53.170Z,14.00
2023-03-05T07:46:24.613Z,13.52
2023-03-05T07:48:51.318Z,14.05
2023-03-05T07:51:20.211Z,14.80
2023-03-05T07:53:48.927Z,13.38
2023-03-05T07:56:24.282Z,14.15
2023-03-05T07:58:50.897Z,14.02
2023-03-05T08:01:17.467Z,15.07
2023-03-05T08:03:44.640Z,13.52
2023-03-05T08:06:14.104Z,14.75
2023-03-05T08:08:40.588Z,15.15
2023-03-05T08:11:17.485Z,16.30
2023-03-05T08:13:45.093Z,13.80
2023-03-05T08:16:17.079Z,14.52
2023-03-05T08:18:43.971Z,14.75
2023-03-05T08:21:26.893Z,14.43
2023-03-05T08:24:00.116Z,17.13
2023-03-05T08:26:28.667Z,17.60
2023-03-05T08:29:01.221Z,16.63
2023-03-05T08:31:34.630Z,15.07
2023-03-05T08:34:02.517Z,14.65
2023-03-05T08:36:29.443Z,15.63
2023-03-05T08:38:56.513Z,13.88
2023-03-05T08:41:23.134Z,14.98
2023-03-05T08:43:49.692Z,15.02
2023-03-05T08:46:29.560Z,14.48
2023-03-05T08:48:56.583Z,15.13
2023-03-05T08:51:25.911Z,16.02
2023-03-05T08:53:54.155Z,14.93
2023-03-05T08:56:21.087Z,15.68
2023-03-05T08:58:48.360Z,15.10
2023-03-05T09:01:17.339Z,16.70
2023-03-05T09:03:43.872Z,16.80
2023-03-05T09:06:12.430Z,15.75
2023-03-05T09:08:41.380Z,16.33
2023-03-05T09:11:11.581Z,16.13
2023-03-05T09:13:38.734Z,18.15
2023-03-05T09:16:09.042Z,17.17
2023-03-05T09:18:36.821Z,16.48
2023-03-05T09:21:18.414Z,17.13
2023-03-05T09:23:47.270Z,16.35
2023-03-05T09:26:16.426Z,18.00
2023-03-05T09:28:44.720Z,16.33
2023-03-05T09:31:12.025Z,16.42
2023-03-05T09:33:39.380Z,15.25
2023-03-05T09:36:19.738Z,15.40
2023-03-05T09:38:49.812Z,13.90
2023-03-05T09:41:56.790Z,14.20
2023-03-05T09:44:23.758Z,12.93
2023-03-05T09:46:52.779Z,13.27
2023-03-05T09:49:58.429Z,12.48
2023-03-05T09:52:50.360Z,13.02
2023-03-05T09:55:27.728Z,13.40
2023-03-05T09:57:59.545Z,13.52
2023-03-05T10:00:40.965Z,11.70
2023-03-05T10:03:17.826Z,12.10
2023-03-05T10:05:55.481Z,11.05
2023-03-05T10:08:28.575Z,12.82
2023-03-05T10:10:55.262Z,12.10
2023-03-05T10:13:34.523Z,11.65
2023-03-05T10:16:28.386Z,11.55
2023-03-05T10:19:08.449Z,11.73
2023-03-05T10:21:51.778Z,12.13
2023-03-05T10:24:29.761Z,11.27
2023-03-05T10:27:08.646Z,11.25
2023-03-05T10:30:17.162Z,12.10
2023-03-05T10:33:07.906Z,17.92
2023-03-05T10:36:02.913Z,11.57
2023-03-05T10:38:32.281Z,10.70
2023-03-05T10:41:16.477Z,10.77
2023-03-05T10:44:04.938Z,10.82
2023-03-05T10:46:37.483Z,10.40
2023-03-05T10:49:18.896Z,10.15
2023-03-05T10:52:06.289Z,11.13
2023-03-05T10:54:34.077Z,11.70
2023-03-05T10:57:33.152Z,10.85
2023-03-05T11:00:05.832Z,9.13
2023-03-05T11:02:35.772Z,9.40
2023-03-05T11:05:04.893Z,9.50
2023-03-05T11:07:34.813Z,10.55
2023-03-05T11:10:06.308Z,10.57
2023-03-05T11:12:37.194Z,10.23
2023-03-05T11:15:28.531Z,10.32
2023-03-05T11:18:17.059Z,9.13
2023-03-05T11:20:45.896Z,8.18
2023-03-05T11:23:12.340Z,9.43
2023-03-05T11:26:02.411Z,8.50
2023-03-05T11:28:37.810Z,8.45
2023-03-05T11:31:18.447Z,8.55
2023-03-05T11:34:05.194Z,9.85
2023-03-05T11:36:39.168Z,8.32
2023-03-05T11:39:11.164Z,8.43
2023-03-05T11:41:50.448Z,8.18
2023-03-05T11:44:34.649Z,8.27
2023-03-05T11:47:26.384Z,8.13
2023-03-05T11:50:00.786Z,7.72
2023-03-05T11:52:34.253Z,7.15
2023-03-05T11:55:13.383Z,6.78
2023-03-05T11:57:48.180Z,7.10
2023-03-05T12:00:18.236Z,8.10
2023-03-05T12:02:52.468Z,8.60
2023-03-05T12:05:20.496Z,8.18
2023-03-05T12:07:53.143Z,7.53
2023-03-05T12:10:23.591Z,7.38
2023-03-05T12:12:59.068Z,8.70
2023-03-05T12:15:36.908Z,7.72
2023-03-05T12:18:12.629Z,7.45
2023-03-05T12:21:28.377Z,7.18
2023-03-05T12:24:01.713Z,8.13
2023-03-05T12:27:04.547Z,7.20
2023-03-05T12:29:45.292Z,6.10
2023-03-05T12:32:35.456Z,5.82
2023-03-05T12:35:22.467Z,7.78
2023-03-05T12:37:51.936Z,9.18
2023-03-05T12:40:30.789Z,9.40
2023-03-05T12:43:03.141Z,9.70
2023-03-05T12:45:32.247Z,10.88
2023-03-05T12:47:58.735Z,8.80
2023-03-05T12:50:31.982Z,9.02
2023-03-05T12:53:10.212Z,8.55
2023-03-05T12:55:46.083Z,8.38
2023-03-05T12:58:19.444Z,8.48
2023-03-05T13:00:57.354Z,8.45
2023-03-05T13:03:34.061Z,7.78
2023-03-05T13:06:01.233Z,7.47
2023-03-05T13:08:31.735Z,8.10
2023-03-05T13:11:08.478Z,8.93
2023-03-05T13:13:43.100Z,9.02
2023-03-05T13:16:24.340Z,8.07
2023-03-05T13:18:52.350Z,7.43
2023-03-05T13:21:23.957Z,7.07
2023-03-05T13:23:58.234Z,7.03
2023-03-05T13:26:30.183Z,7.28
2023-03-05T13:29:15.760Z,9.50
2023-03-05T13:31:48.068Z,10.40
2023-03-05T13:34:20.795Z,10.18
2023-03-05T13:36:54.609Z,8.52
2023-03-05T13:39:25.353Z,9.10
2023-03-05T13:42:01.906Z,8.93
2023-03-05T13:44:30.163Z,8.90
2023-03-05T13:47:28.638Z,8.65
2023-03-05T13:50:00.115Z,8.73
2023-03-05T13:52:32.543Z,7.47
2023-03-05T13:54:59.991Z,7.72
2023-03-05T13:57:41.712Z,7.03
2023-03-05T14:00:38.997Z,7.13
2023-03-05T14:03:24.553Z,6.75
2023-03-05T14:05:51.458Z,6.35
2023-03-05T14:08:23.780Z,8.02
2023-03-05T14:10:51.081Z,7.63
2023-03-05T14:13:21.519Z,8.48
2023-03-05T14:16:06.715Z,7.00
2023-03-05T14:18:33.656Z,6.43
2023-03-05T14:21:00.274Z,7.40
2023-03-05T14:23:43.316Z,7.15
2023-03-05T14:26:40.250Z,6.72
2023-03-05T14:29:13.377Z,6.60
2023-03-05T14:32:05.842Z,6.93
2023-03-05T14:34:47.987Z,6.22
2023-03-05T14:37:25.188Z,7.07
2023-03-05T14:40:06.497Z,6.93
2023-03-05T14:42:50.501Z,6.05
2023-03-05T14:45:22.147Z,5.88
2023-03-05T14:47:50.858Z,6.50
2023-03-05T14:50:28.253Z,6.05
2023-03-05T14:52:57.983Z,6.10
2023-03-05T14:55:27.792Z,6.07
2023-03-05T14:58:03.621Z,5.90
2023-03-05T15:02:58.819Z,7.07
2023-03-05T15:05:25.555Z,7.13
2023-03-05T15:07:52.489Z,6.45
2023-03-05T15:10:21.774Z,7.88
2023-03-05T15:12:53.471Z,6.95
2023-03-05T15:15:21.443Z,5.95
2023-03-05T15:17:51.773Z,6.45
2023-03-05T15:20:28.699Z,6.00
2023-03-05T15:22:55.468Z,5.35
2023-03-05T15:25:24.322Z,5.43
2023-03-05T15:27:51.191Z,5.97
2023-03-05T15:30:27.917Z,5.55
2023-03-05T15:33:01.631Z,7.35
2023-03-05T15:35:31.948Z,5.95
2023-03-05T15:37:58.674Z,5.60
2023-03-05T15:40:29.514Z,6.07
2023-03-05T15:42:57.064Z,5.57
2023-03-05T15:45:24.645Z,6.18
2023-03-05T15:47:53.011Z,5.22
2023-03-05T15:50:21.300Z,5.47
2023-03-05T15:52:51.628Z,5.50
2023-03-05T15:55:18.648Z,4.90
2023-03-05T15:57:47.863Z,4.32
2023-03-05T16:00:16.350Z,4.85
2023-03-05T16:02:43.119Z,5.43
2023-03-05T16:05:10.164Z,5.10
2023-03-05T16:07:40.476Z,4.57
2023-03-05T16:10:11.276Z,4.28
2023-03-05T16:12:41.080Z,4.18
2023-03-05T16:15:13.692Z,3.83
2023-03-05T16:17:44.034Z,4.13
2023-03-05T16:20:12.097Z,4.07
2023-03-05T16:22:39.235Z,4.18
2023-03-05T16:25:06.234Z,3.85
2023-03-05T16:27:32.798Z,4.57
2023-03-05T16:30:03.803Z,4.20
2023-03-05T16:32:30.350Z,4.13
2023-03-05T16:34:58.368Z,4.40
2023-03-05T16:37:25.998Z,4.88
2023-03-05T16:39:52.493Z,3.85
2023-03-05T16:42:19.128Z,4.15
2023-03-05T16:44:48.741Z,4.47
2023-03-05T16:47:21.450Z,4.07
2023-03-05T16:49:51.830Z,3.03
2023-03-05T16:52:19.705Z,3.90
2023-03-05T16:54:47.650Z,3.50
2023-03-05T16:57:16.690Z,3.58
2023-03-05T16:59:45.432Z,3.53
2023-03-05T17:02:13.317Z,3.20
2023-03-05T17:04:41.674Z,3.88
2023-03-05T17:07:08.249Z,3.10
2023-03-05T17:09:34.886Z,4.07
2023-03-05T17:12:05.874Z,3.70
2023-03-05T17:14:32.475Z,3.53
2023-03-05T17:16:59.044Z,4.07
2023-03-05T17:19:25.822Z,3.38
2023-03-05T17:21:52.626Z,3.40
2023-03-05T17:24:22.330Z,2.83
2023-03-05T17:26:51.474Z,3.83
2023-03-05T17:29:19.314Z,3.90
2023-03-05T17:31:46.841Z,3.13
2023-03-05T17:34:16.686Z,3.28
2023-03-05T17:36:48.553Z,3.72
2023-03-05T17:39:15.099Z,3.75
2023-03-05T17:41:41.726Z,3.70
2023-03-05T17:44:11.625Z,3.80
2023-03-05T17:46:38.296Z,3.10
2023-03-05T17:49:09.090Z,3.20
2023-03-05T17:51:35.628Z,3.63
2023-03-05T17:54:02.389Z,3.85
2023-03-05T17:56:29.176Z,3.03
2023-03-05T17:58:56.225Z,3.38
2023-03-05T18:01:32.803Z,3.53
2023-03-05T18:03:59.614Z,3.33
2023-03-05T18:06:26.917Z,3.65
2023-03-05T18:08:57.880Z,3.72
2023-03-05T18:11:24.541Z,2.88
2023-03-05T18:13:51.118Z,2.97
2023-03-05T18:16:18.461Z,3.25
2023-03-05T18:18:45.418Z,3.65
2023-03-05T18:21:12.081Z,3.53
2023-03-05T18:23:40.403Z,2.65
2023-03-05T18:26:06.966Z,2.90
2023-03-05T18:28:33.425Z,2.70
2023-03-05T18:31:07.458Z,3.35
2023-03-05T18:33:34.158Z,3.38
2023-03-05T18:36:00.857Z,4.70
2023-03-05T18:38:29.819Z,4.35
2023-03-05T18:40:57.448Z,3.80
2023-03-05T18:43:24.508Z,4.18
2023-03-05T18:45:53.093Z,6.07
2023-03-05T18:48:20.524Z,5.72
2023-03-05T18:50:50.790Z,5.35
2023-03-05T18:53:21.713Z,5.35
2023-03-05T18:55:49.757Z,5.97
2023-03-05T18:58:17.615Z,5.53
2023-03-05T19:00:47.441Z,5.60
2023-03-05T19:03:15.581Z,6.00
2023-03-05T19:05:42.574Z,4.68
2023-03-05T19:08:09.620Z,5.40
2023-03-05T19:10:36.453Z,5.40
2023-03-05T19:13:40.502Z,5.72
2023-03-05T19:16:12.409Z,4.70
2023-03-05T19:19:16.869Z,4.47
2023-03-05T19:21:47.786Z,4.70
2023-03-05T19:24:15.283Z,4.28
2023-03-05T19:26:48.993Z,4.45
2023-03-05T19:29:16.880Z,5.18
2023-03-05T19:31:43.381Z,5.07
2023-03-05T19:34:10.287Z,4.85
2023-03-05T19:36:36.941Z,4.55
2023-03-05T19:39:07.846Z,4.00
2023-03-05T19:41:41.153Z,4.70
2023-03-05T19:44:07.693Z,4.05
2023-03-05T19:46:34.371Z,4.60
2023-03-05T19:49:03.024Z,3.88
2023-03-05T19:51:29.662Z,3.90
2023-03-05T19:53:56.251Z,3.88
2023-03-05T19:56:24.721Z,4.82
2023-03-05T19:58:51.447Z,4.45
2023-03-05T20:01:21.011Z,5.10
2023-03-05T20:03:49.346Z,4.88
2023-03-05T20:06:16.124Z,5.63
2023-03-05T20:08:43.240Z,5.00
2023-03-05T20:11:14.282Z,5.03
2023-03-05T20:13:40.997Z,4.70
2023-03-05T20:16:17.095Z,4.50
2023-03-05T20:18:44.256Z,4.88
2023-03-05T20:21:16.060Z,4.70
2023-03-05T20:23:42.793Z,4.88
2023-03-05T20:26:10.936Z,4.82
2023-03-05T20:28:37.442Z,5.38
2023-03-05T20:31:04.116Z,5.22
2023-03-05T20:33:30.791Z,5.43
2023-03-05T20:35:57.536Z,5.10
2023-03-05T20:38:25.525Z,4.75
2023-03-05T20:40:54.367Z,6.07
2023-03-05T20:43:23.329Z,5.90
2023-03-05T20:45:55.668Z,6.35
2023-03-05T20:48:22.149Z,5.22
2023-03-05T20:50:48.715Z,5.60
2023-03-05T20:53:17.568Z,4.45
2023-03-05T20:55:44.338Z,4.70
2023-03-05T20:58:14.707Z,4.70
2023-03-05T21:00:42.214Z,5.05
2023-03-05T21:03:09.560Z,5.07
2023-03-05T21:05:37.220Z,5.00
2023-03-05T21:08:08.408Z,5.28
2023-03-05T21:10:34.884Z,5.25
2023-03-05T21:13:01.404Z,5.43
2023-03-05T21:15:29.596Z,6.03
2023-03-05T21:17:57.349Z,5.82
2023-03-05T21:20:29.921Z,5.10
2023-03-05T21:22:58.036Z,4.70
2023-03-05T21:25:29.720Z,5.20
2023-03-05T21:28:09.555Z,4.50
2023-03-05T21:30:39.647Z,4.70
2023-03-05T21:33:10.062Z,4.60
2023-03-05T21:35:36.856Z,5.10
2023-03-05T21:38:05.359Z,4.75
2023-03-05T21:40:33.245Z,4.28
2023-03-05T21:43:00.232Z,4.45
2023-03-05T21:45:28.556Z,3.92
2023-03-05T21:47:56.244Z,4.00
2023-03-05T21:50:26.255Z,4.53
2023-03-05T21:52:54.782Z,4.50
2023-03-05T21:56:05.290Z,5.28
2023-03-05T21:58:33.379Z,4.65
2023-03-05T22:01:00.428Z,4.38
2023-03-05T22:03:29.620Z,4.10
2023-03-05T22:05:56.472Z,4.03
2023-03-05T22:08:23.258Z,4.35
2023-03-05T22:10:52.079Z,4.75
2023-03-05T22:13:20.186Z,4.63
2023-03-05T22:15:58.424Z,4.32
2023-03-05T22:18:30.652Z,4.30
2023-03-05T22:20:58.303Z,5.10
2023-03-05T22:23:29.535Z,4.90
2023-03-05T22:26:02.333Z,5.20
2023-03-05T22:28:29.462Z,4.57
2023-03-05T22:30:58.445Z,5.53
2023-03-05T22:33:25.815Z,4.18
2023-03-05T22:35:52.813Z,4.65
2023-03-05T22:38:20.296Z,4.93
2023-03-05T22:40:48.101Z,4.25
2023-03-05T22:43:15.818Z,4.38
2023-03-05T22:45:44.152Z,4.75
2023-03-05T22:48:11.587Z,4.47
2023-03-05T22:50:39.120Z,4.20
2023-03-05T22:53:07.791Z,4.13
2023-03-05T22:55:34.494Z,4.28
2023-03-05T22:58:04.400Z,4.10
2023-03-05T23:00:31.079Z,4.78
2023-03-05T23:02:57.654Z,4.50
2023-03-05T23:05:24.253Z,4.40
2023-03-05T23:07:50.850Z,5.03
2023-03-05T23:10:26.425Z,4.30
2023-03-05T23:12:55.651Z,4.60
2023-03-05T23:15:37.081Z,4.57
2023-03-05T23:18:08.654Z,4.40
2023-03-05T23:20:37.047Z,4.90
2023-03-05T23:23:03.963Z,4.28
2023-03-05T23:25:34.611Z,3.83
2023-03-05T23:28:01.884Z,4.18
2023-03-05T23:30:32.223Z,4.38
2023-03-05T23:33:13.720Z,4.88
2023-03-05T23:35:42.776Z,4.47
2023-03-05T23:38:16.996Z,4.18
2023-03-05T23:40:46.723Z,3.88
2023-03-05T23:43:14.067Z,3.90
2023-03-05T23:45:44.137Z,4.05
2023-03-05T23:48:11.680Z,4.43
2023-03-05T23:50:40.812Z,4.15
2023-03-05T23:53:07.977Z,4.50
2023-03-05T23:55:41.870Z,4.25
2023-03-05T23:58:10.781Z,3.95
